createdAt,value
2023-04-01T00:00:00.279Z,3.9
2023-04-01T00:05:00.289Z,2.8
2023-04-01T00:10:00.277Z,2.6
2023-04-01T00:15:00.283Z,3.3
2023-04-01T00:20:00.267Z,2.7
2023-04-01T00:25:00.278Z,2.9
2023-04-01T00:30:00.278Z,2.9
2023-04-01T00:35:00.272Z,3.5
2023-04-01T00:40:00.239Z,3.8
2023-04-01T00:45:00.305Z,3.5
2023-04-01T00:50:00.266Z,3.2
2023-04-01T00:55:00.304Z,3.5
2023-04-01T01:00:00.370Z,3.1
2023-04-01T01:05:00.293Z,2.7
2023-04-01T01:10:00.275Z,3.2
2023-04-01T01:15:00.276Z,3.7
2023-04-01T01:20:00.276Z,3.9
2023-04-01T01:25:00.298Z,3.6
2023-04-01T01:30:00.262Z,4.1
2023-04-01T01:35:00.293Z,3.7
2023-04-01T01:40:00.272Z,3.7
2023-04-01T01:45:00.281Z,5.5
2023-04-01T01:50:00.246Z,3.7
2023-04-01T01:55:00.289Z,4.4
2023-04-01T02:00:00.275Z,4.3
2023-04-01T02:05:00.391Z,4.5
2023-04-01T02:10:00.248Z,3.9
2023-04-01T02:15:00.305Z,4.9
2023-04-01T02:20:00.321Z,4.8
2023-04-01T02:25:00.285Z,4.0
2023-04-01T02:30:00.282Z,3.4
2023-04-01T02:35:00.274Z,3.5
2023-04-01T02:40:00.244Z,4.4
2023-04-01T02:45:00.472Z,3.5
2023-04-01T02:50:00.243Z,3.6
2023-04-01T02:55:00.289Z,4.2
2023-04-01T03:00:00.298Z,3.1
2023-04-01T03:05:00.287Z,3.1
2023-04-01T03:10:00.279Z,3.2
2023-04-01T03:15:11.478Z,3.7
2023-04-01T03:20:00.234Z,4.0
2023-04-01T03:25:00.288Z,3.3
2023-04-01T03:30:00.305Z,2.9
2023-04-01T03:35:00.277Z,3.0
2023-04-01T03:40:00.255Z,2.9
2023-04-01T03:45:00.294Z,3.5
2023-04-01T03:50:00.279Z,3.1
2023-04-01T03:55:00.273Z,3.2
2023-04-01T04:00:00.284Z,4.5
2023-04-01T04:05:00.298Z,4.3
2023-04-01T04:10:00.247Z,3.9
2023-04-01T04:15:00.302Z,4.6
2023-04-01T04:20:00.275Z,4.4
2023-04-01T04:25:00.302Z,5.3
2023-04-01T04:30:00.281Z,4.8
2023-04-01T04:35:00.276Z,4.3
2023-04-01T04:40:00.294Z,4.7
2023-04-01T04:45:00.276Z,4.3
2023-04-01T04:50:00.272Z,4.2
2023-04-01T04:55:00.283Z,4.5
2023-04-01T05:00:00.274Z,5.3
2023-04-01T05:05:00.277Z,4.6
2023-04-01T05:10:00.286Z,5.0
2023-04-01T05:15:00.288Z,3.8
2023-04-01T05:20:00.254Z,4.2
2023-04-01T05:25:00.301Z,4.3
2023-04-01T05:30:00.279Z,4.4
2023-04-01T05:35:00.303Z,3.3
2023-04-01T05:40:00.246Z,3.4
2023-04-01T05:45:00.299Z,0.8
2023-04-01T05:50:00.283Z,0.5
2023-04-01T05:55:00.290Z,0.4
2023-04-01T06:00:00.276Z,0.6
2023-04-01T06:05:00.280Z,0.4
2023-04-01T06:10:00.266Z,0.4
2023-04-01T06:15:00.318Z,0.4
2023-04-01T06:20:00.285Z,0.6
2023-04-01T06:25:00.278Z,0.8
2023-04-01T06:30:00.289Z,0.3
2023-04-01T06:35:00.276Z,0.4
2023-04-01T06:40:00.284Z,0.6
2023-04-01T06:45:00.507Z,0.4
2023-04-01T06:50:00.274Z,0.3
2023-04-01T06:55:00.291Z,0.5
2023-04-01T07:00:00.279Z,0.3
2023-04-01T07:05:00.276Z,0.4
2023-04-01T07:10:00.300Z,0.4
2023-04-01T07:15:00.312Z,0.4
2023-04-01T07:20:00.288Z,0.3
2023-04-01T07:25:00.244Z,0.3
2023-04-01T07:30:00.450Z,0.6
2023-04-01T07:35:00.249Z,0.4
2023-04-01T07:40:00.278Z,0.2
2023-04-01T07:45:00.292Z,0.5
2023-04-01T07:50:00.315Z,0.3
2023-04-01T07:55:00.301Z,0.4
2023-04-01T08:00:00.241Z,0.3
2023-04-01T08:05:00.421Z,0.7
2023-04-01T08:10:00.268Z,0.5
2023-04-01T08:15:00.295Z,0.5
2023-04-01T08:20:00.265Z,0.4
2023-04-01T08:25:00.293Z,0.7
2023-04-01T08:30:00.265Z,0.5
2023-04-01T08:35:00.292Z,0.4
2023-04-01T08:40:00.274Z,1.4
2023-04-01T08:45:00.286Z,0.2
2023-04-01T08:50:00.256Z,0.3
2023-04-01T08:55:00.312Z,0.3
2023-04-01T09:00:00.239Z,0.2
2023-04-01T09:05:00.277Z,0.2
2023-04-01T09:10:00.291Z,0.4
2023-04-01T09:15:00.297Z,0.6
2023-04-01T09:20:00.286Z,0.3
2023-04-01T09:25:00.288Z,0.2
2023-04-01T09:30:00.289Z,0.4
2023-04-01T09:35:00.248Z,0.4
2023-04-01T09:40:00.293Z,0.4
2023-04-01T09:45:00.276Z,0.2
2023-04-01T09:50:00.306Z,0.5
2023-04-01T09:55:00.273Z,0.3
2023-04-01T10:00:00.282Z,0.3
2023-04-01T10:05:00.278Z,0.3
2023-04-01T10:10:00.296Z,0.4
2023-04-01T10:15:00.268Z,0.3
2023-04-01T10:20:00.285Z,0.4
2023-04-01T10:25:00.300Z,0.6
2023-04-01T10:30:00.309Z,0.4
2023-04-01T10:35:00.274Z,0.5
2023-04-01T10:40:00.354Z,0.4
2023-04-01T10:45:00.272Z,0.3
2023-04-01T10:50:00.336Z,0.3
2023-04-01T10:55:00.296Z,0.3
2023-04-01T11:00:00.293Z,1.9
2023-04-01T11:05:00.284Z,0.3
2023-04-01T11:10:00.283Z,0.3
2023-04-01T11:15:00.272Z,0.2
2023-04-01T11:20:00.280Z,0.3
2023-04-01T11:25:00.274Z,0.4
2023-04-01T11:30:01.039Z,0.6
2023-04-01T11:35:00.256Z,1.3
2023-04-01T11:40:00.292Z,1.3
2023-04-01T11:45:00.270Z,0.8
2023-04-01T11:50:00.290Z,0.9
2023-04-01T11:55:00.260Z,0.8
2023-04-01T12:00:00.292Z,0.8
2023-04-01T12:05:00.358Z,1.0
2023-04-01T12:10:00.299Z,1.1
2023-04-01T12:15:00.256Z,1.4
2023-04-01T12:20:00.298Z,1.6
2023-04-01T12:25:00.285Z,2.2
2023-04-01T12:30:00.291Z,2.4
2023-04-01T12:35:00.262Z,1.1
2023-04-01T12:40:00.292Z,2.0
2023-04-01T12:45:00.277Z,2.0
2023-04-01T12:50:00.280Z,2.3
2023-04-01T12:55:01.020Z,2.8
2023-04-01T13:00:00.307Z,3.0
2023-04-01T13:05:00.238Z,2.5
2023-04-01T13:10:00.345Z,2.9
2023-04-01T13:15:00.282Z,2.6
2023-04-01T13:20:05.541Z,4.8
2023-04-01T13:25:00.263Z,1.4
2023-04-01T13:30:00.291Z,2.4
2023-04-01T13:35:00.292Z,2.4
2023-04-01T13:40:00.280Z,1.2
2023-04-01T13:45:00.250Z,1.4
2023-04-01T13:50:00.280Z,1.7
2023-04-01T13:55:01.219Z,1.3
2023-04-01T14:00:00.293Z,1.7
2023-04-01T14:05:00.278Z,1.9
2023-04-01T14:10:00.321Z,2.6
2023-04-01T14:15:00.254Z,2.9
2023-04-01T14:20:03.713Z,2.8
2023-04-01T14:25:00.262Z,2.7
2023-04-01T14:30:00.284Z,2.4
2023-04-01T14:35:00.237Z,2.2
2023-04-01T14:40:00.316Z,1.9
2023-04-01T14:45:00.236Z,3.3
2023-04-01T14:50:01.923Z,2.2
2023-04-01T14:55:00.293Z,1.6
2023-04-01T15:00:00.295Z,2.2
2023-04-01T15:05:00.365Z,1.8
2023-04-01T15:10:00.286Z,2.3
2023-04-01T15:15:00.248Z,1.7
2023-04-01T15:20:00.281Z,2.4
2023-04-01T15:25:00.295Z,3.3
2023-04-01T15:30:00.288Z,3.4
2023-04-01T15:35:00.278Z,3.6
2023-04-01T15:40:00.298Z,3.5
2023-04-01T15:45:00.291Z,2.6
2023-04-01T15:50:00.312Z,2.3
2023-04-01T15:55:00.252Z,2.5
2023-04-01T16:00:00.433Z,3.4
2023-04-01T16:05:00.248Z,3.9
2023-04-01T16:10:00.297Z,4.3
2023-04-01T16:15:00.275Z,3.5
2023-04-01T16:20:00.274Z,4.4
2023-04-01T16:25:00.231Z,5.2
2023-04-01T16:30:00.334Z,4.4
2023-04-01T16:35:00.387Z,3.2
2023-04-01T16:40:00.293Z,2.5
2023-04-01T16:45:00.244Z,2.8
2023-04-01T16:50:00.297Z,4.1
2023-04-01T16:55:00.280Z,2.9
2023-04-01T17:00:00.297Z,2.4
2023-04-01T17:05:00.235Z,2.9
2023-04-01T17:10:00.287Z,4.1
2023-04-01T17:15:00.255Z,3.3
2023-04-01T17:20:00.311Z,3.7
2023-04-01T17:25:00.294Z,3.7
2023-04-01T17:30:00.618Z,4.0
2023-04-01T17:35:00.244Z,3.2
2023-04-01T17:40:00.313Z,2.8
2023-04-01T17:45:00.289Z,4.0
2023-04-01T17:50:00.298Z,3.1
2023-04-01T17:55:00.257Z,3.5
2023-04-01T18:00:00.326Z,3.0
2023-04-01T18:05:00.274Z,7.0
2023-04-01T18:10:00.308Z,4.8
2023-04-01T18:15:00.246Z,2.8
2023-04-01T18:20:00.314Z,2.7
2023-04-01T18:25:00.282Z,2.1
2023-04-01T18:30:00.339Z,3.0
2023-04-01T18:35:00.246Z,3.0
2023-04-01T18:40:00.291Z,2.5
2023-04-01T18:45:00.286Z,2.7
2023-04-01T18:50:00.301Z,3.5
2023-04-01T18:55:00.248Z,2.6
2023-04-01T19:00:00.325Z,2.0
2023-04-01T19:05:00.229Z,3.0
2023-04-01T19:10:00.313Z,2.7
2023-04-01T19:15:00.263Z,3.4
2023-04-01T19:20:00.310Z,2.5
2023-04-01T19:25:00.262Z,1.9
2023-04-01T19:30:00.303Z,2.8
2023-04-01T19:35:00.295Z,3.1
2023-04-01T19:40:00.317Z,4.8
2023-04-01T19:45:00.266Z,3.5
2023-04-01T19:50:00.290Z,3.1
2023-04-01T19:55:00.279Z,2.4
2023-04-01T20:00:00.353Z,4.2
2023-04-01T20:05:00.309Z,3.5
2023-04-01T20:10:00.292Z,2.8
2023-04-01T20:15:00.278Z,2.5
2023-04-01T20:20:00.278Z,2.3
2023-04-01T20:25:00.263Z,2.3
2023-04-01T20:30:00.290Z,2.1
2023-04-01T20:35:00.263Z,2.5
2023-04-01T20:40:00.285Z,2.5
2023-04-01T20:45:00.291Z,2.7
2023-04-01T20:50:00.457Z,3.2
2023-04-01T20:55:00.271Z,2.6
2023-04-01T21:00:01.088Z,2.0
2023-04-01T21:05:00.256Z,3.0
2023-04-01T21:10:00.295Z,1.7
2023-04-01T21:15:00.330Z,1.7
2023-04-01T21:20:00.306Z,1.3
2023-04-01T21:25:00.251Z,1.4
2023-04-01T21:30:00.302Z,1.8
2023-04-01T21:35:00.373Z,1.1
2023-04-01T21:40:00.280Z,2.4
2023-04-01T21:45:00.254Z,2.5
2023-04-01T21:50:00.282Z,1.6
2023-04-01T21:55:00.255Z,1.9
2023-04-01T22:00:00.295Z,2.2
2023-04-01T22:05:00.273Z,1.4
2023-04-01T22:10:00.311Z,1.8
2023-04-01T22:15:00.252Z,1.6
2023-04-01T22:20:00.291Z,1.4
2023-04-01T22:25:00.298Z,1.5
2023-04-01T22:30:00.274Z,1.7
2023-04-01T22:35:00.295Z,1.8
2023-04-01T22:40:00.286Z,1.7
2023-04-01T22:45:00.298Z,2.0
2023-04-01T22:50:00.327Z,2.0
2023-04-01T22:55:00.314Z,1.3
2023-04-01T23:00:00.278Z,1.7
2023-04-01T23:05:00.394Z,1.4
2023-04-01T23:10:00.363Z,1.0
2023-04-01T23:15:00.294Z,1.0
2023-04-01T23:20:00.307Z,1.6
2023-04-01T23:25:00.264Z,1.3
2023-04-01T23:30:00.316Z,1.0
2023-04-01T23:35:00.314Z,0.9
2023-04-01T23:40:00.480Z,1.5
2023-04-01T23:45:00.252Z,0.9
2023-04-01T23:50:02.429Z,1.9
2023-04-01T23:55:00.277Z,0.8
